sensor_id;sensor_type;location;lat;lon;timestamp;P1;durP1;ratioP1;P2;durP2;ratioP2
73650;SDS011;61944;52.538;6.108;2023-02-23T00:01:18;113.53;;;46.15;;
73650;SDS011;61944;52.538;6.108;2023-02-23T00:03:49;119.53;;;44.35;;
73650;SDS011;61944;52.538;6.108;2023-02-23T00:06:16;127.63;;;49.03;;
73650;SDS011;61944;52.538;6.108;2023-02-23T00:08:42;116.55;;;45.45;;
73650;SDS011;61944;52.538;6.108;2023-02-23T00:11:09;116.43;;;46.95;;
73650;SDS011;61944;52.538;6.108;2023-02-23T00:13:36;109.50;;;47.05;;
73650;SDS011;61944;52.538;6.108;2023-02-23T00:16:06;113.32;;;44.10;;
73650;SDS011;61944;52.538;6.108;2023-02-23T00:18:33;122.00;;;48.45;;
73650;SDS011;61944;52.538;6.108;2023-02-23T00:21:09;115.25;;;48.85;;
73650;SDS011;61944;52.538;6.108;2023-02-23T00:23:39;118.25;;;47.45;;
73650;SDS011;61944;52.538;6.108;2023-02-23T00:26:05;121.03;;;49.97;;
73650;SDS011;61944;52.538;6.108;2023-02-23T00:28:31;118.45;;;47.83;;
73650;SDS011;61944;52.538;6.108;2023-02-23T00:30:56;119.43;;;46.05;;
73650;SDS011;61944;52.538;6.108;2023-02-23T00:33:22;130.68;;;53.28;;
73650;SDS011;61944;52.538;6.108;2023-02-23T00:35:47;115.85;;;43.92;;
73650;SDS011;61944;52.538;6.108;2023-02-23T00:38:12;115.75;;;44.22;;
73650;SDS011;61944;52.538;6.108;2023-02-23T00:40:38;118.38;;;48.15;;
73650;SDS011;61944;52.538;6.108;2023-02-23T00:43:05;123.72;;;50.15;;
73650;SDS011;61944;52.538;6.108;2023-02-23T00:45:30;124.18;;;47.67;;
73650;SDS011;61944;52.538;6.108;2023-02-23T00:47:56;107.72;;;45.72;;
73650;SDS011;61944;52.538;6.108;2023-02-23T00:50:21;132.93;;;50.40;;
73650;SDS011;61944;52.538;6.108;2023-02-23T00:52:47;110.20;;;46.55;;
73650;SDS011;61944;52.538;6.108;2023-02-23T00:55:13;113.18;;;44.95;;
73650;SDS011;61944;52.538;6.108;2023-02-23T00:57:39;122.10;;;48.65;;
73650;SDS011;61944;52.538;6.108;2023-02-23T01:00:07;108.18;;;42.53;;
73650;SDS011;61944;52.538;6.108;2023-02-23T01:02:40;109.70;;;46.17;;
73650;SDS011;61944;52.538;6.108;2023-02-23T01:05:06;103.60;;;44.78;;
73650;SDS011;61944;52.538;6.108;2023-02-23T01:07:32;109.25;;;44.40;;
73650;SDS011;61944;52.538;6.108;2023-02-23T01:09:57;115.60;;;47.10;;
73650;SDS011;61944;52.538;6.108;2023-02-23T01:12:23;116.65;;;46.17;;
73650;SDS011;61944;52.538;6.108;2023-02-23T01:14:48;123.53;;;49.05;;
73650;SDS011;61944;52.538;6.108;2023-02-23T01:17:14;107.07;;;43.70;;
73650;SDS011;61944;52.538;6.108;2023-02-23T01:19:39;122.97;;;47.35;;
73650;SDS011;61944;52.538;6.108;2023-02-23T01:22:04;120.43;;;44.53;;
73650;SDS011;61944;52.538;6.108;2023-02-23T01:24:30;112.43;;;45.65;;
73650;SDS011;61944;52.538;6.108;2023-02-23T01:26:55;118.18;;;45.70;;
73650;SDS011;61944;52.538;6.108;2023-02-23T01:29:21;116.45;;;45.28;;
73650;SDS011;61944;52.538;6.108;2023-02-23T01:31:48;111.25;;;45.17;;
73650;SDS011;61944;52.538;6.108;2023-02-23T01:34:17;117.43;;;48.17;;
73650;SDS011;61944;52.538;6.108;2023-02-23T01:36:45;114.10;;;42.78;;
73650;SDS011;61944;52.538;6.108;2023-02-23T01:39:12;93.25;;;40.63;;
73650;SDS011;61944;52.538;6.108;2023-02-23T01:41:40;116.55;;;43.67;;
73650;SDS011;61944;52.538;6.108;2023-02-23T01:46:38;99.22;;;44.35;;
73650;SDS011;61944;52.538;6.108;2023-02-23T01:49:05;112.47;;;43.15;;
73650;SDS011;61944;52.538;6.108;2023-02-23T01:51:36;107.45;;;43.22;;
73650;SDS011;61944;52.538;6.108;2023-02-23T01:54:11;109.53;;;42.58;;
73650;SDS011;61944;52.538;6.108;2023-02-23T01:56:40;108.03;;;43.30;;
73650;SDS011;61944;52.538;6.108;2023-02-23T01:59:09;119.45;;;45.28;;
73650;SDS011;61944;52.538;6.108;2023-02-23T02:01:40;109.30;;;43.90;;
73650;SDS011;61944;52.538;6.108;2023-02-23T02:04:07;109.35;;;42.70;;
73650;SDS011;61944;52.538;6.108;2023-02-23T02:06:40;106.55;;;41.88;;
73650;SDS011;61944;52.538;6.108;2023-02-23T02:09:09;104.22;;;43.22;;
73650;SDS011;61944;52.538;6.108;2023-02-23T02:11:41;99.13;;;42.25;;
73650;SDS011;61944;52.538;6.108;2023-02-23T02:31:31;100.88;;;40.03;;
73650;SDS011;61944;52.538;6.108;2023-02-23T02:40:05;106.35;;;40.92;;
73650;SDS011;61944;52.538;6.108;2023-02-23T02:42:58;115.40;;;43.50;;
73650;SDS011;61944;52.538;6.108;2023-02-23T02:48:49;105.93;;;39.40;;
73650;SDS011;61944;52.538;6.108;2023-02-23T02:51:47;105.30;;;39.20;;
73650;SDS011;61944;52.538;6.108;2023-02-23T02:54:35;115.35;;;45.88;;
73650;SDS011;61944;52.538;6.108;2023-02-23T02:57:05;101.00;;;38.55;;
73650;SDS011;61944;52.538;6.108;2023-02-23T02:59:40;114.82;;;43.58;;
73650;SDS011;61944;52.538;6.108;2023-02-23T03:02:26;103.50;;;42.20;;
73650;SDS011;61944;52.538;6.108;2023-02-23T03:05:14;100.68;;;42.13;;
73650;SDS011;61944;52.538;6.108;2023-02-23T03:29:22;117.38;;;44.50;;
73650;SDS011;61944;52.538;6.108;2023-02-23T03:38:04;113.03;;;43.13;;
73650;SDS011;61944;52.538;6.108;2023-02-23T03:40:58;108.95;;;42.70;;
73650;SDS011;61944;52.538;6.108;2023-02-23T03:43:57;98.07;;;38.78;;
73650;SDS011;61944;52.538;6.108;2023-02-23T03:46:46;99.15;;;37.90;;
73650;SDS011;61944;52.538;6.108;2023-02-23T03:49:33;107.15;;;41.30;;
73650;SDS011;61944;52.538;6.108;2023-02-23T03:52:21;96.50;;;39.53;;
73650;SDS011;61944;52.538;6.108;2023-02-23T03:55:11;115.03;;;42.33;;
73650;SDS011;61944;52.538;6.108;2023-02-23T03:58:00;113.65;;;45.78;;
73650;SDS011;61944;52.538;6.108;2023-02-23T04:00:48;99.55;;;39.85;;
73650;SDS011;61944;52.538;6.108;2023-02-23T04:03:34;117.82;;;41.30;;
73650;SDS011;61944;52.538;6.108;2023-02-23T04:06:23;103.78;;;40.70;;
73650;SDS011;61944;52.538;6.108;2023-02-23T04:09:11;101.25;;;40.25;;
73650;SDS011;61944;52.538;6.108;2023-02-23T04:17:39;113.75;;;45.15;;
73650;SDS011;61944;52.538;6.108;2023-02-23T04:20:07;112.50;;;44.53;;
73650;SDS011;61944;52.538;6.108;2023-02-23T04:22:36;93.50;;;40.60;;
73650;SDS011;61944;52.538;6.108;2023-02-23T04:25:02;107.78;;;44.10;;
73650;SDS011;61944;52.538;6.108;2023-02-23T04:27:27;113.45;;;42.58;;
73650;SDS011;61944;52.538;6.108;2023-02-23T04:29:53;102.18;;;39.33;;
73650;SDS011;61944;52.538;6.108;2023-02-23T04:32:18;113.95;;;42.72;;
73650;SDS011;61944;52.538;6.108;2023-02-23T04:34:45;107.05;;;47.15;;
73650;SDS011;61944;52.538;6.108;2023-02-23T04:37:10;110.65;;;40.60;;
73650;SDS011;61944;52.538;6.108;2023-02-23T04:39:36;108.40;;;42.63;;
73650;SDS011;61944;52.538;6.108;2023-02-23T04:42:01;115.50;;;45.25;;
73650;SDS011;61944;52.538;6.108;2023-02-23T04:44:27;107.28;;;42.08;;
73650;SDS011;61944;52.538;6.108;2023-02-23T04:46:52;114.32;;;46.28;;
73650;SDS011;61944;52.538;6.108;2023-02-23T04:49:18;111.88;;;44.30;;
73650;SDS011;61944;52.538;6.108;2023-02-23T04:51:43;105.68;;;40.80;;
73650;SDS011;61944;52.538;6.108;2023-02-23T04:54:09;100.63;;;40.30;;
73650;SDS011;61944;52.538;6.108;2023-02-23T04:56:35;104.97;;;42.60;;
73650;SDS011;61944;52.538;6.108;2023-02-23T04:59:00;106.50;;;43.72;;
73650;SDS011;61944;52.538;6.108;2023-02-23T05:01:26;109.30;;;41.63;;
73650;SDS011;61944;52.538;6.108;2023-02-23T05:03:52;95.13;;;41.55;;
73650;SDS011;61944;52.538;6.108;2023-02-23T05:06:18;102.80;;;42.05;;
73650;SDS011;61944;52.538;6.108;2023-02-23T05:08:44;107.32;;;42.70;;
73650;SDS011;61944;52.538;6.108;2023-02-23T05:11:10;121.75;;;45.58;;
73650;SDS011;61944;52.538;6.108;2023-02-23T05:13:36;111.18;;;45.05;;
73650;SDS011;61944;52.538;6.108;2023-02-23T05:16:02;106.30;;;41.67;;
73650;SDS011;61944;52.538;6.108;2023-02-23T05:18:28;110.03;;;42.90;;
73650;SDS011;61944;52.538;6.108;2023-02-23T05:20:54;105.88;;;45.10;;
73650;SDS011;61944;52.538;6.108;2023-02-23T05:23:26;109.45;;;44.70;;
73650;SDS011;61944;52.538;6.108;2023-02-23T05:25:51;106.55;;;39.42;;
73650;SDS011;61944;52.538;6.108;2023-02-23T05:28:17;104.25;;;39.22;;
73650;SDS011;61944;52.538;6.108;2023-02-23T05:30:42;104.60;;;38.75;;
73650;SDS011;61944;52.538;6.108;2023-02-23T05:33:07;96.45;;;40.40;;
73650;SDS011;61944;52.538;6.108;2023-02-23T05:35:33;90.90;;;38.58;;
73650;SDS011;61944;52.538;6.108;2023-02-23T05:37:59;101.93;;;39.70;;
73650;SDS011;61944;52.538;6.108;2023-02-23T05:40:24;99.80;;;38.97;;
73650;SDS011;61944;52.538;6.108;2023-02-23T05:42:49;112.80;;;38.55;;
73650;SDS011;61944;52.538;6.108;2023-02-23T05:45:15;98.20;;;40.88;;
73650;SDS011;61944;52.538;6.108;2023-02-23T05:47:40;96.15;;;38.45;;
73650;SDS011;61944;52.538;6.108;2023-02-23T05:50:07;95.53;;;37.25;;
73650;SDS011;61944;52.538;6.108;2023-02-23T05:52:37;99.60;;;38.58;;
73650;SDS011;61944;52.538;6.108;2023-02-23T05:55:05;102.68;;;38.40;;
73650;SDS011;61944;52.538;6.108;2023-02-23T05:57:32;91.47;;;38.65;;
73650;SDS011;61944;52.538;6.108;2023-02-23T05:59:57;101.55;;;38.60;;
73650;SDS011;61944;52.538;6.108;2023-02-23T06:02:23;95.15;;;39.63;;
73650;SDS011;61944;52.538;6.108;2023-02-23T06:04:48;92.22;;;34.67;;
73650;SDS011;61944;52.538;6.108;2023-02-23T06:07:13;96.95;;;38.25;;
73650;SDS011;61944;52.538;6.108;2023-02-23T06:09:39;92.22;;;36.80;;
73650;SDS011;61944;52.538;6.108;2023-02-23T06:12:05;109.03;;;40.58;;
73650;SDS011;61944;52.538;6.108;2023-02-23T06:14:30;97.55;;;41.28;;
73650;SDS011;61944;52.538;6.108;2023-02-23T06:16:57;93.47;;;40.00;;
73650;SDS011;61944;52.538;6.108;2023-02-23T06:19:24;96.03;;;38.08;;
73650;SDS011;61944;52.538;6.108;2023-02-23T06:21:49;99.35;;;36.65;;
73650;SDS011;61944;52.538;6.108;2023-02-23T06:24:17;97.03;;;39.78;;
73650;SDS011;61944;52.538;6.108;2023-02-23T06:26:43;109.70;;;39.53;;
73650;SDS011;61944;52.538;6.108;2023-02-23T06:29:09;100.32;;;38.72;;
73650;SDS011;61944;52.538;6.108;2023-02-23T06:31:36;100.00;;;40.28;;
73650;SDS011;61944;52.538;6.108;2023-02-23T06:34:01;100.30;;;38.03;;
73650;SDS011;61944;52.538;6.108;2023-02-23T06:36:27;94.78;;;36.83;;
73650;SDS011;61944;52.538;6.108;2023-02-23T06:38:54;89.15;;;36.05;;
73650;SDS011;61944;52.538;6.108;2023-02-23T06:41:24;102.07;;;39.95;;
73650;SDS011;61944;52.538;6.108;2023-02-23T06:43:51;98.50;;;35.58;;
73650;SDS011;61944;52.538;6.108;2023-02-23T06:46:17;105.32;;;37.97;;
73650;SDS011;61944;52.538;6.108;2023-02-23T06:48:45;86.78;;;37.03;;
73650;SDS011;61944;52.538;6.108;2023-02-23T06:51:11;102.57;;;37.35;;
73650;SDS011;61944;52.538;6.108;2023-02-23T06:53:36;91.47;;;36.75;;
73650;SDS011;61944;52.538;6.108;2023-02-23T06:56:02;96.03;;;37.08;;
73650;SDS011;61944;52.538;6.108;2023-02-23T07:01:42;97.78;;;37.45;;
73650;SDS011;61944;52.538;6.108;2023-02-23T07:04:08;109.68;;;41.75;;
73650;SDS011;61944;52.538;6.108;2023-02-23T07:06:34;96.30;;;36.75;;
73650;SDS011;61944;52.538;6.108;2023-02-23T07:09:00;88.63;;;35.90;;
73650;SDS011;61944;52.538;6.108;2023-02-23T07:11:25;100.00;;;38.72;;
73650;SDS011;61944;52.538;6.108;2023-02-23T07:13:56;105.60;;;37.67;;
73650;SDS011;61944;52.538;6.108;2023-02-23T07:16:48;93.50;;;33.00;;
73650;SDS011;61944;52.538;6.108;2023-02-23T07:19:31;102.32;;;36.28;;
73650;SDS011;61944;52.538;6.108;2023-02-23T07:22:07;98.63;;;39.30;;
73650;SDS011;61944;52.538;6.108;2023-02-23T07:24:38;96.05;;;38.63;;
73650;SDS011;61944;52.538;6.108;2023-02-23T07:27:03;92.53;;;38.47;;
73650;SDS011;61944;52.538;6.108;2023-02-23T07:29:45;96.25;;;38.08;;
73650;SDS011;61944;52.538;6.108;2023-02-23T07:32:10;93.95;;;35.80;;
73650;SDS011;61944;52.538;6.108;2023-02-23T07:34:51;96.18;;;37.15;;
73650;SDS011;61944;52.538;6.108;2023-02-23T07:37:20;92.28;;;38.30;;
73650;SDS011;61944;52.538;6.108;2023-02-23T07:39:46;97.63;;;37.58;;
73650;SDS011;61944;52.538;6.108;2023-02-23T07:42:22;96.28;;;38.03;;
73650;SDS011;61944;52.538;6.108;2023-02-23T07:44:50;93.80;;;34.72;;
73650;SDS011;61944;52.538;6.108;2023-02-23T07:47:34;96.68;;;37.20;;
73650;SDS011;61944;52.538;6.108;2023-02-23T07:53:46;91.95;;;35.80;;
73650;SDS011;61944;52.538;6.108;2023-02-23T07:56:22;101.60;;;40.65;;
73650;SDS011;61944;52.538;6.108;2023-02-23T07:58:48;106.25;;;39.88;;
73650;SDS011;61944;52.538;6.108;2023-02-23T08:01:13;100.93;;;38.83;;
73650;SDS011;61944;52.538;6.108;2023-02-23T08:03:39;85.25;;;37.65;;
73650;SDS011;61944;52.538;6.108;2023-02-23T08:06:04;88.90;;;35.35;;
73650;SDS011;61944;52.538;6.108;2023-02-23T08:08:30;92.50;;;36.75;;
73650;SDS011;61944;52.538;6.108;2023-02-23T08:11:00;101.03;;;36.40;;
73650;SDS011;61944;52.538;6.108;2023-02-23T08:13:27;93.82;;;36.53;;
73650;SDS011;61944;52.538;6.108;2023-02-23T08:15:53;95.30;;;37.40;;
73650;SDS011;61944;52.538;6.108;2023-02-23T08:18:19;94.65;;;35.75;;
73650;SDS011;61944;52.538;6.108;2023-02-23T08:20:44;99.40;;;36.05;;
73650;SDS011;61944;52.538;6.108;2023-02-23T08:23:10;94.03;;;34.58;;
73650;SDS011;61944;52.538;6.108;2023-02-23T08:25:36;93.18;;;38.05;;
73650;SDS011;61944;52.538;6.108;2023-02-23T08:28:01;101.43;;;38.03;;
73650;SDS011;61944;52.538;6.108;2023-02-23T08:30:28;93.03;;;36.38;;
73650;SDS011;61944;52.538;6.108;2023-02-23T08:32:54;86.10;;;34.95;;
73650;SDS011;61944;52.538;6.108;2023-02-23T08:35:19;92.10;;;34.63;;
73650;SDS011;61944;52.538;6.108;2023-02-23T08:37:44;93.40;;;36.92;;
73650;SDS011;61944;52.538;6.108;2023-02-23T08:40:10;94.53;;;34.33;;
73650;SDS011;61944;52.538;6.108;2023-02-23T08:42:39;98.47;;;36.70;;
73650;SDS011;61944;52.538;6.108;2023-02-23T08:45:08;99.32;;;35.70;;
73650;SDS011;61944;52.538;6.108;2023-02-23T08:47:34;92.70;;;40.22;;
73650;SDS011;61944;52.538;6.108;2023-02-23T08:50:00;93.65;;;35.85;;
73650;SDS011;61944;52.538;6.108;2023-02-23T08:52:25;91.82;;;34.55;;
73650;SDS011;61944;52.538;6.108;2023-02-23T08:54:50;101.32;;;35.67;;
73650;SDS011;61944;52.538;6.108;2023-02-23T08:57:16;91.68;;;36.38;;
73650;SDS011;61944;52.538;6.108;2023-02-23T08:59:41;94.65;;;36.65;;
73650;SDS011;61944;52.538;6.108;2023-02-23T09:02:10;93.35;;;36.58;;
73650;SDS011;61944;52.538;6.108;2023-02-23T09:04:37;101.88;;;40.40;;
73650;SDS011;61944;52.538;6.108;2023-02-23T09:07:03;107.60;;;39.10;;
73650;SDS011;61944;52.538;6.108;2023-02-23T09:09:28;95.82;;;36.92;;
73650;SDS011;61944;52.538;6.108;2023-02-23T09:11:54;94.50;;;37.13;;
73650;SDS011;61944;52.538;6.108;2023-02-23T09:14:19;88.75;;;32.40;;
73650;SDS011;61944;52.538;6.108;2023-02-23T09:16:45;92.28;;;35.78;;
73650;SDS011;61944;52.538;6.108;2023-02-23T09:19:11;87.80;;;33.45;;
73650;SDS011;61944;52.538;6.108;2023-02-23T09:21:37;107.35;;;37.78;;
73650;SDS011;61944;52.538;6.108;2023-02-23T09:24:02;90.40;;;33.20;;
73650;SDS011;61944;52.538;6.108;2023-02-23T09:26:27;105.07;;;39.08;;
73650;SDS011;61944;52.538;6.108;2023-02-23T09:28:53;92.93;;;35.20;;
73650;SDS011;61944;52.538;6.108;2023-02-23T09:31:20;98.45;;;37.35;;
73650;SDS011;61944;52.538;6.108;2023-02-23T09:33:47;100.13;;;35.88;;
73650;SDS011;61944;52.538;6.108;2023-02-23T09:36:13;100.55;;;35.30;;
73650;SDS011;61944;52.538;6.108;2023-02-23T09:38:45;98.35;;;35.03;;
73650;SDS011;61944;52.538;6.108;2023-02-23T09:41:26;101.05;;;37.17;;
73650;SDS011;61944;52.538;6.108;2023-02-23T09:49:34;94.65;;;36.25;;
73650;SDS011;61944;52.538;6.108;2023-02-23T09:52:03;97.95;;;33.70;;
73650;SDS011;61944;52.538;6.108;2023-02-23T09:54:35;103.23;;;35.47;;
73650;SDS011;61944;52.538;6.108;2023-02-23T09:57:01;103.28;;;36.38;;
73650;SDS011;61944;52.538;6.108;2023-02-23T09:59:30;106.82;;;42.30;;
73650;SDS011;61944;52.538;6.108;2023-02-23T10:02:50;104.13;;;39.83;;
73650;SDS011;61944;52.538;6.108;2023-02-23T10:04:48;103.90;;;40.63;;
73650;SDS011;61944;52.538;6.108;2023-02-23T10:07:21;100.82;;;38.58;;
73650;SDS011;61944;52.538;6.108;2023-02-23T10:15:24;102.85;;;37.92;;
73650;SDS011;61944;52.538;6.108;2023-02-23T10:20:59;90.40;;;33.28;;
73650;SDS011;61944;52.538;6.108;2023-02-23T10:23:30;93.95;;;33.70;;
73650;SDS011;61944;52.538;6.108;2023-02-23T10:26:16;87.93;;;36.45;;
73650;SDS011;61944;52.538;6.108;2023-02-23T10:28:45;84.97;;;29.40;;
73650;SDS011;61944;52.538;6.108;2023-02-23T10:31:17;80.43;;;29.95;;
73650;SDS011;61944;52.538;6.108;2023-02-23T10:33:56;80.60;;;28.48;;
73650;SDS011;61944;52.538;6.108;2023-02-23T10:36:34;82.63;;;30.23;;
73650;SDS011;61944;52.538;6.108;2023-02-23T10:39:05;80.00;;;28.83;;
73650;SDS011;61944;52.538;6.108;2023-02-23T10:41:33;85.93;;;30.70;;
73650;SDS011;61944;52.538;6.108;2023-02-23T10:44:00;76.50;;;28.65;;
73650;SDS011;61944;52.538;6.108;2023-02-23T10:46:30;71.50;;;26.40;;
73650;SDS011;61944;52.538;6.108;2023-02-23T10:49:02;78.95;;;28.55;;
73650;SDS011;61944;52.538;6.108;2023-02-23T10:51:29;75.07;;;27.00;;
73650;SDS011;61944;52.538;6.108;2023-02-23T10:54:21;65.38;;;25.20;;
73650;SDS011;61944;52.538;6.108;2023-02-23T10:56:58;62.38;;;22.63;;
73650;SDS011;61944;52.538;6.108;2023-02-23T10:59:24;69.45;;;23.30;;
73650;SDS011;61944;52.538;6.108;2023-02-23T11:01:51;63.53;;;24.90;;
73650;SDS011;61944;52.538;6.108;2023-02-23T11:04:24;65.03;;;23.27;;
73650;SDS011;61944;52.538;6.108;2023-02-23T11:07:05;58.67;;;23.35;;
73650;SDS011;61944;52.538;6.108;2023-02-23T11:09:40;75.13;;;28.63;;
73650;SDS011;61944;52.538;6.108;2023-02-23T11:12:16;62.67;;;22.50;;
73650;SDS011;61944;52.538;6.108;2023-02-23T11:14:51;70.90;;;24.98;;
73650;SDS011;61944;52.538;6.108;2023-02-23T11:20:11;59.77;;;23.87;;
73650;SDS011;61944;52.538;6.108;2023-02-23T11:22:49;62.20;;;22.75;;
73650;SDS011;61944;52.538;6.108;2023-02-23T11:25:19;56.03;;;22.60;;
73650;SDS011;61944;52.538;6.108;2023-02-23T11:27:50;54.75;;;22.30;;
73650;SDS011;61944;52.538;6.108;2023-02-23T11:30:20;60.92;;;22.63;;
73650;SDS011;61944;52.538;6.108;2023-02-23T11:32:53;54.22;;;20.63;;
73650;SDS011;61944;52.538;6.108;2023-02-23T11:37:47;62.03;;;18.20;;
73650;SDS011;61944;52.538;6.108;2023-02-23T11:42:59;39.40;;;16.13;;
73650;SDS011;61944;52.538;6.108;2023-02-23T11:46:16;39.97;;;16.15;;
73650;SDS011;61944;52.538;6.108;2023-02-23T11:48:26;48.08;;;17.45;;
73650;SDS011;61944;52.538;6.108;2023-02-23T11:50:54;41.38;;;16.13;;
73650;SDS011;61944;52.538;6.108;2023-02-23T11:56:04;43.88;;;16.25;;
73650;SDS011;61944;52.538;6.108;2023-02-23T11:58:42;47.10;;;17.60;;
73650;SDS011;61944;52.538;6.108;2023-02-23T12:01:14;47.70;;;16.10;;
73650;SDS011;61944;52.538;6.108;2023-02-23T12:03:53;49.92;;;17.27;;
73650;SDS011;61944;52.538;6.108;2023-02-23T12:09:19;44.05;;;15.50;;
73650;SDS011;61944;52.538;6.108;2023-02-23T12:11:51;48.40;;;18.17;;
73650;SDS011;61944;52.538;6.108;2023-02-23T12:14:47;41.65;;;16.50;;
73650;SDS011;61944;52.538;6.108;2023-02-23T12:22:45;41.97;;;15.90;;
73650;SDS011;61944;52.538;6.108;2023-02-23T12:25:19;51.35;;;17.10;;
73650;SDS011;61944;52.538;6.108;2023-02-23T12:27:59;49.47;;;20.05;;
73650;SDS011;61944;52.538;6.108;2023-02-23T12:30:50;53.22;;;19.73;;
73650;SDS011;61944;52.538;6.108;2023-02-23T12:33:25;59.17;;;21.52;;
73650;SDS011;61944;52.538;6.108;2023-02-23T12:35:59;54.70;;;20.60;;
73650;SDS011;61944;52.538;6.108;2023-02-23T12:38:59;64.70;;;21.02;;
73650;SDS011;61944;52.538;6.108;2023-02-23T12:41:47;64.03;;;21.15;;
73650;SDS011;61944;52.538;6.108;2023-02-23T12:44:34;67.75;;;24.08;;
73650;SDS011;61944;52.538;6.108;2023-02-23T12:47:08;59.42;;;22.00;;
73650;SDS011;61944;52.538;6.108;2023-02-23T12:49:45;58.67;;;22.08;;
73650;SDS011;61944;52.538;6.108;2023-02-23T12:52:29;52.08;;;18.88;;
73650;SDS011;61944;52.538;6.108;2023-02-23T12:54:57;50.10;;;18.60;;
73650;SDS011;61944;52.538;6.108;2023-02-23T12:57:29;54.35;;;19.23;;
73650;SDS011;61944;52.538;6.108;2023-02-23T13:00:06;51.15;;;18.98;;
73650;SDS011;61944;52.538;6.108;2023-02-23T13:02:52;59.05;;;20.42;;
73650;SDS011;61944;52.538;6.108;2023-02-23T13:05:33;55.88;;;20.40;;
73650;SDS011;61944;52.538;6.108;2023-02-23T13:08:12;57.90;;;19.48;;
73650;SDS011;61944;52.538;6.108;2023-02-23T13:11:19;53.70;;;18.75;;
73650;SDS011;61944;52.538;6.108;2023-02-23T13:14:04;63.42;;;20.27;;
73650;SDS011;61944;52.538;6.108;2023-02-23T13:16:35;50.92;;;18.00;;
73650;SDS011;61944;52.538;6.108;2023-02-23T13:24:25;54.15;;;20.85;;
73650;SDS011;61944;52.538;6.108;2023-02-23T13:27:00;61.75;;;20.50;;
73650;SDS011;61944;52.538;6.108;2023-02-23T13:29:38;57.40;;;22.23;;
73650;SDS011;61944;52.538;6.108;2023-02-23T13:32:16;60.47;;;21.67;;
73650;SDS011;61944;52.538;6.108;2023-02-23T13:34:47;56.28;;;23.70;;
73650;SDS011;61944;52.538;6.108;2023-02-23T13:37:16;61.43;;;21.57;;
73650;SDS011;61944;52.538;6.108;2023-02-23T13:39:55;58.97;;;23.05;;
73650;SDS011;61944;52.538;6.108;2023-02-23T13:47:44;55.38;;;20.38;;
73650;SDS011;61944;52.538;6.108;2023-02-23T13:52:46;70.00;;;23.25;;
73650;SDS011;61944;52.538;6.108;2023-02-23T13:57:53;68.90;;;21.55;;
73650;SDS011;61944;52.538;6.108;2023-02-23T14:00:22;62.50;;;21.88;;
73650;SDS011;61944;52.538;6.108;2023-02-23T14:02:48;68.95;;;23.80;;
73650;SDS011;61944;52.538;6.108;2023-02-23T14:05:21;69.10;;;24.15;;
73650;SDS011;61944;52.538;6.108;2023-02-23T14:07:55;69.05;;;23.85;;
73650;SDS011;61944;52.538;6.108;2023-02-23T14:10:36;65.05;;;24.05;;
73650;SDS011;61944;52.538;6.108;2023-02-23T14:25:47;70.60;;;24.67;;
73650;SDS011;61944;52.538;6.108;2023-02-23T14:28:33;71.40;;;21.92;;
73650;SDS011;61944;52.538;6.108;2023-02-23T14:31:01;71.97;;;25.33;;
73650;SDS011;61944;52.538;6.108;2023-02-23T14:38:49;75.00;;;23.95;;
73650;SDS011;61944;52.538;6.108;2023-02-23T14:41:23;78.32;;;24.25;;
73650;SDS011;61944;52.538;6.108;2023-02-23T14:44:37;87.95;;;25.17;;
73650;SDS011;61944;52.538;6.108;2023-02-23T14:49:30;101.10;;;30.92;;
73650;SDS011;61944;52.538;6.108;2023-02-23T14:54:43;85.80;;;27.75;;
73650;SDS011;61944;52.538;6.108;2023-02-23T14:57:20;89.28;;;26.33;;
73650;SDS011;61944;52.538;6.108;2023-02-23T14:59:50;69.28;;;20.80;;
73650;SDS011;61944;52.538;6.108;2023-02-23T15:02:25;48.17;;;17.40;;
73650;SDS011;61944;52.538;6.108;2023-02-23T15:04:52;46.95;;;12.85;;
73650;SDS011;61944;52.538;6.108;2023-02-23T15:09:50;31.65;;;8.07;;
73650;SDS011;61944;52.538;6.108;2023-02-23T15:12:36;21.15;;;6.38;;
73650;SDS011;61944;52.538;6.108;2023-02-23T15:15:03;24.63;;;5.97;;
73650;SDS011;61944;52.538;6.108;2023-02-23T15:17:31;24.33;;;6.13;;
73650;SDS011;61944;52.538;6.108;2023-02-23T15:19:58;15.38;;;4.97;;
73650;SDS011;61944;52.538;6.108;2023-02-23T15:22:32;17.98;;;3.85;;
73650;SDS011;61944;52.538;6.108;2023-02-23T15:25:00;25.67;;;5.75;;
73650;SDS011;61944;52.538;6.108;2023-02-23T15:27:28;16.95;;;5.10;;
73650;SDS011;61944;52.538;6.108;2023-02-23T15:32:47;21.05;;;5.32;;
73650;SDS011;61944;52.538;6.108;2023-02-23T15:35:13;26.00;;;5.70;;
73650;SDS011;61944;52.538;6.108;2023-02-23T15:37:39;20.23;;;4.47;;
73650;SDS011;61944;52.538;6.108;2023-02-23T15:40:18;20.85;;;5.32;;
73650;SDS011;61944;52.538;6.108;2023-02-23T15:42:55;25.13;;;5.30;;
73650;SDS011;61944;52.538;6.108;2023-02-23T15:48:05;35.85;;;6.45;;
73650;SDS011;61944;52.538;6.108;2023-02-23T15:50:39;24.90;;;6.22;;
73650;SDS011;61944;52.538;6.108;2023-02-23T15:53:11;19.75;;;6.28;;
73650;SDS011;61944;52.538;6.108;2023-02-23T15:55:48;27.60;;;5.60;;
73650;SDS011;61944;52.538;6.108;2023-02-23T15:58:20;36.10;;;7.55;;
73650;SDS011;61944;52.538;6.108;2023-02-23T16:00:55;37.75;;;5.82;;
73650;SDS011;61944;52.538;6.108;2023-02-23T16:03:29;35.20;;;6.47;;
73650;SDS011;61944;52.538;6.108;2023-02-23T16:06:00;29.73;;;5.97;;
73650;SDS011;61944;52.538;6.108;2023-02-23T16:08:30;37.20;;;5.13;;
73650;SDS011;61944;52.538;6.108;2023-02-23T16:11:01;20.25;;;4.38;;
73650;SDS011;61944;52.538;6.108;2023-02-23T16:13:32;26.42;;;5.57;;
73650;SDS011;61944;52.538;6.108;2023-02-23T16:15:57;27.63;;;6.68;;
73650;SDS011;61944;52.538;6.108;2023-02-23T16:18:31;40.75;;;9.10;;
73650;SDS011;61944;52.538;6.108;2023-02-23T16:21:06;33.60;;;5.65;;
73650;SDS011;61944;52.538;6.108;2023-02-23T16:23:41;33.67;;;6.28;;
73650;SDS011;61944;52.538;6.108;2023-02-23T16:29:14;31.55;;;6.95;;
73650;SDS011;61944;52.538;6.108;2023-02-23T16:31:52;37.65;;;6.60;;
73650;SDS011;61944;52.538;6.108;2023-02-23T16:34:30;21.23;;;4.68;;
73650;SDS011;61944;52.538;6.108;2023-02-23T16:37:20;31.30;;;5.65;;
73650;SDS011;61944;52.538;6.108;2023-02-23T16:39:50;24.42;;;5.70;;
73650;SDS011;61944;52.538;6.108;2023-02-23T16:44:54;21.88;;;5.38;;
73650;SDS011;61944;52.538;6.108;2023-02-23T16:49:46;29.08;;;5.03;;
73650;SDS011;61944;52.538;6.108;2023-02-23T16:52:14;23.20;;;4.65;;
73650;SDS011;61944;52.538;6.108;2023-02-23T16:54:42;25.17;;;6.00;;
73650;SDS011;61944;52.538;6.108;2023-02-23T16:57:12;22.15;;;6.38;;
73650;SDS011;61944;52.538;6.108;2023-02-23T16:59:46;24.65;;;4.28;;
73650;SDS011;61944;52.538;6.108;2023-02-23T17:02:14;27.40;;;4.47;;
73650;SDS011;61944;52.538;6.108;2023-02-23T17:04:42;22.85;;;5.25;;
73650;SDS011;61944;52.538;6.108;2023-02-23T17:07:16;29.90;;;4.38;;
73650;SDS011;61944;52.538;6.108;2023-02-23T17:09:43;29.00;;;4.80;;
73650;SDS011;61944;52.538;6.108;2023-02-23T17:12:12;34.47;;;6.72;;
73650;SDS011;61944;52.538;6.108;2023-02-23T17:14:45;31.38;;;5.38;;
73650;SDS011;61944;52.538;6.108;2023-02-23T17:17:13;21.90;;;3.78;;
73650;SDS011;61944;52.538;6.108;2023-02-23T17:19:39;40.42;;;6.55;;